< < Back
Terminal Aerodrome Forecast


Current Version              Previous Versions:   1  2  3  4  5  6  7  8  9  

Terminal Aerodrome Forecast

156
FTUS42 KJAX 230500
TAFGNV
TAF
KGNV 230520Z 2306/2406 25004KT P6SM SCT060
     FM230800 29003KT 3SM BR SCT005
      TEMPO 2308/2312 1SM BR BKN005
     FM231200 29007KT P6SM SCT060=



Latest METAR

892
SAUS70 KWBC 231000 RRM
MTRGNV
METAR KGNV 230953Z AUTO 26003KT 10SM CLR 16/15 A2989 RMK AO2 SLP120
T01560150


USA.gov is the U.S. government's official web portal to all federal, state and local government web resources and services.